ADDS TAF Data INFO
IDs: Format: Raw Decoded Include METARs

Data at: 2022 UTC 22 Apr 2018

KGCK 221954Z 36008KT 10SM OVC038 12/03 A3017 RMK AO2 SLP216 T01220033 $

KGCK 221916Z 2219/2318 VRB06KT P6SM OVC040